Time;durP1;ratioP1;P1;durP2;ratioP2;P2;SDS_P1;SDS_P2;PMS_P1;PMS_P2;Temp;Humidity;BMP_temperature;BMP_pressure;BME280_temperature;BME280_humidity;BME280_pressure;Samples;Min_cycle;Max_cycle;Signal;HPM_P1;HPM_P2
2021/04/29 00:00:10;;;;;;;0.08;0.08;;;;;;;-0.50;89.53;101129.39;1780640;80;21126;-44
2021/04/29 00:02:39;;;;;;;0.80;0.80;;;;;;;-0.54;89.62;101129.47;1758357;80;21146;-44
2021/04/29 00:05:07;;;;;;;0.42;0.42;;;;;;;-0.57;89.67;101134.37;1756307;81;21557;-44
2021/04/29 00:07:36;;;;;;;0.05;0.05;;;;;;;-0.60;89.77;101133.41;1755365;80;21158;-44
2021/04/29 00:10:09;;;;;;;0.80;0.80;;;;;;;-0.65;89.95;101132.11;1751590;81;21159;-44
2021/04/29 00:12:36;;;;;;;0.10;0.10;;;;;;;-0.66;90.07;101130.98;1787632;80;21146;-44
2021/04/29 00:15:08;;;;;;;0.10;0.10;;;;;;;-0.70;90.27;101131.03;1786624;80;21163;-44
2021/04/29 00:17:36;;;;;;;0.10;0.10;;;;;;;-0.74;90.44;101123.88;1758975;80;21126;-44
2021/04/29 00:20:10;;;;;;;0.10;0.10;;;;;;;-0.75;90.55;101125.39;1749712;81;21142;-44
2021/04/29 00:22:37;;;;;;;3.25;0.42;;;;;;;-0.78;90.61;101121.75;1753597;81;21174;-44
2021/04/29 00:25:06;;;;;;;0.10;0.10;;;;;;;-0.81;90.65;101126.16;1781008;80;21513;-44
2021/04/29 00:27:33;;;;;;;0.10;0.10;;;;;;;-0.83;90.73;101129.54;1787913;80;21143;-44
2021/04/29 00:30:01;;;;;;;0.10;0.10;;;;;;;-0.88;90.85;101126.90;1767839;79;21434;-44
2021/04/29 00:32:28;;;;;;;0.68;0.68;;;;;;;-0.92;90.93;101132.30;1743148;82;21172;-44
2021/04/29 00:34:56;;;;;;;0.10;0.10;;;;;;;-0.94;91.05;101133.51;1784055;80;21576;-44
2021/04/29 00:37:23;;;;;;;0.10;0.10;;;;;;;-0.98;91.22;101133.06;1791901;80;21129;-44
2021/04/29 00:39:50;;;;;;;0.30;0.30;;;;;;;-1.00;91.40;101125.70;1788973;80;21615;-45
2021/04/29 00:42:19;;;;;;;0.40;0.40;;;;;;;-1.03;91.49;101121.24;1787650;80;21147;-44
2021/04/29 00:44:46;;;;;;;0.37;0.20;;;;;;;-1.06;91.59;101129.64;1782810;80;21031;-44
2021/04/29 00:47:14;;;;;;;0.10;0.10;;;;;;;-1.09;91.74;101127.67;1784546;80;21110;-44
2021/04/29 00:49:41;;;;;;;0.10;0.10;;;;;;;-1.10;91.89;101128.67;1747474;81;20972;-44
2021/04/29 00:52:09;;;;;;;0.33;0.33;;;;;;;-1.10;92.03;101122.48;1765435;81;21453;-44
2021/04/29 00:54:36;;;;;;;0.00;0.00;;;;;;;-1.11;92.09;101124.86;1765488;81;21193;-44
2021/04/29 00:57:04;;;;;;;0.10;0.10;;;;;;;-1.13;92.15;101125.55;1791743;80;21154;-44
2021/04/29 00:59:32;;;;;;;0.10;0.10;;;;;;;-1.15;92.23;101130.27;1761914;81;21126;-44
2021/04/29 01:02:02;;;;;;;0.20;0.20;;;;;;;-1.18;92.33;101127.44;1762078;80;21434;-44
2021/04/29 01:04:53;;;;;;;0.10;0.10;;;;;;;-1.21;92.42;101126.96;1782032;80;21145;-44
2021/04/29 01:07:21;;;;;;;0.10;0.10;;;;;;;-1.23;92.55;101129.84;1773987;80;21161;-44
2021/04/29 01:10:12;;;;;;;1.37;0.30;;;;;;;-1.27;92.66;101127.20;1775665;80;21146;-44
2021/04/29 01:12:49;;;;;;;0.00;0.00;;;;;;;-1.30;92.81;101124.38;1783458;80;21446;-44
2021/04/29 01:15:17;;;;;;;0.20;0.20;;;;;;;-1.31;92.95;101125.92;1772408;80;21678;-44
2021/04/29 01:17:47;;;;;;;0.15;0.15;;;;;;;-1.35;93.10;101126.79;1731586;82;21154;-44
2021/04/29 01:20:26;;;;;;;0.10;0.10;;;;;;;-1.36;93.23;101121.59;1778516;80;21166;-44
2021/04/29 01:23:25;;;;;;;0.20;0.20;;;;;;;-1.40;93.30;101122.48;1789540;80;21177;-44
2021/04/29 01:25:59;;;;;;;0.70;0.20;;;;;;;-1.41;93.40;101119.50;1772301;80;21382;-44
2021/04/29 01:28:27;;;;;;;0.03;0.03;;;;;;;-1.44;93.49;101120.36;1770019;80;21131;-44
2021/04/29 01:30:55;;;;;;;0.00;0.00;;;;;;;-1.47;93.58;101118.87;1756337;80;21107;-44
2021/04/29 01:33:23;;;;;;;0.00;0.00;;;;;;;-1.49;93.71;101115.55;1767671;80;21144;-44
2021/04/29 01:35:51;;;;;;;0.20;0.20;;;;;;;-1.50;93.76;101110.38;1752797;81;21145;-44
2021/04/29 01:38:18;;;;;;;0.10;0.10;;;;;;;-1.54;93.83;101113.41;1763012;80;21250;-44
2021/04/29 01:40:46;;;;;;;0.40;0.40;;;;;;;-1.55;93.96;101110.93;1730783;80;21145;-44
2021/04/29 01:43:13;;;;;;;0.10;0.10;;;;;;;-1.57;94.08;101112.95;1784962;80;21110;-44
2021/04/29 01:45:41;;;;;;;0.10;0.10;;;;;;;-1.59;94.15;101101.58;1776307;80;21736;-44
2021/04/29 01:48:10;;;;;;;0.10;0.10;;;;;;;-1.62;94.21;101105.46;1750430;80;21155;-44
2021/04/29 01:50:38;;;;;;;0.20;0.20;;;;;;;-1.64;94.26;101108.00;1750840;81;21169;-44
2021/04/29 01:53:05;;;;;;;0.28;0.28;;;;;;;-1.67;94.26;101116.41;1746785;80;21135;-44
2021/04/29 01:55:33;;;;;;;0.13;0.13;;;;;;;-1.70;94.38;101118.13;1771461;80;21110;-44
2021/04/29 01:58:01;;;;;;;0.57;0.40;;;;;;;-1.74;94.45;101111.77;1754055;81;21166;-44
2021/04/29 02:00:28;;;;;;;0.10;0.10;;;;;;;-1.75;94.56;101111.97;1734058;81;21170;-44
2021/04/29 02:03:00;;;;;;;0.23;0.23;;;;;;;-1.78;94.69;101119.87;1730015;81;21438;-44
2021/04/29 02:05:28;;;;;;;;;;;;;;;-1.78;94.79;101112.31;1734594;81;21126;-44
2021/04/29 02:07:57;;;;;;;0.10;0.10;;;;;;;-1.80;94.85;101110.34;1751797;81;20268;-44
2021/04/29 02:10:25;;;;;;;0.40;0.40;;;;;;;-1.84;94.99;101113.88;1759802;81;21130;-44
2021/04/29 02:12:55;;;;;;;0.10;0.10;;;;;;;-1.85;95.12;101118.92;1732928;81;21558;-44
2021/04/29 02:15:29;;;;;;;0.10;0.10;;;;;;;-1.87;95.23;101115.59;1731684;81;21171;-44
2021/04/29 02:18:12;;;;;;;0.37;0.37;;;;;;;-1.88;95.36;101115.27;1759685;81;21214;-44
2021/04/29 02:20:42;;;;;;;0.10;0.10;;;;;;;-1.90;95.48;101115.09;1760427;81;21151;-44
2021/04/29 02:23:12;;;;;;;0.20;0.20;;;;;;;-1.91;95.55;101119.63;1750183;81;21163;-44
2021/04/29 02:25:43;;;;;;;0.62;0.62;;;;;;;-1.93;95.62;101127.02;1755763;81;21419;-44
2021/04/29 02:28:09;;;;;;;0.75;0.75;;;;;;;-1.96;95.69;101116.15;1731444;81;21154;-44
2021/04/29 02:30:37;;;;;;;1.85;1.60;;;;;;;-1.96;95.75;101127.38;1757143;81;21147;-44
2021/04/29 02:33:06;;;;;;;0.15;0.15;;;;;;;-1.97;95.78;101127.06;1731440;81;21143;-43
2021/04/29 02:35:34;;;;;;;0.08;0.08;;;;;;;-1.99;95.78;101123.73;1776491;80;21171;-44
2021/04/29 02:38:02;;;;;;;1.72;1.37;;;;;;;-2.01;95.86;101132.45;1774577;80;21174;-44
2021/04/29 02:40:30;;;;;;;0.15;0.15;;;;;;;-2.03;95.91;101126.43;1785698;80;21414;-44
2021/04/29 02:42:59;;;;;;;0.00;0.00;;;;;;;-2.04;95.97;101118.08;1784617;80;21442;-44
2021/04/29 02:45:26;;;;;;;0.50;0.50;;;;;;;-2.06;96.05;101120.11;1780737;80;21514;-44
2021/04/29 02:47:55;;;;;;;0.10;0.10;;;;;;;-2.05;96.14;101119.94;1748129;82;21074;-44
2021/04/29 02:50:24;;;;;;;0.17;0.17;;;;;;;-2.04;96.25;101122.10;1780080;80;21952;-44
2021/04/29 02:52:52;;;;;;;0.05;0.05;;;;;;;-2.03;96.36;101120.59;1777044;80;21110;-44
2021/04/29 02:55:22;;;;;;;0.20;0.20;;;;;;;-2.00;96.48;101121.56;1753844;80;21127;-44
2021/04/29 02:57:49;;;;;;;0.08;0.08;;;;;;;-1.96;96.59;101124.70;1781825;80;21170;-44
2021/04/29 03:00:19;;;;;;;0.05;0.05;;;;;;;-1.91;96.66;101122.31;1781441;80;21601;-44
2021/04/29 03:02:46;;;;;;;0.95;0.88;;;;;;;-1.87;96.75;101116.93;1785049;80;21150;-44
2021/04/29 03:05:14;;;;;;;0.50;0.50;;;;;;;-1.81;96.82;101117.52;1787214;80;21126;-44
2021/04/29 03:07:42;;;;;;;2.17;1.20;;;;;;;-1.74;96.85;101120.32;1784711;80;21121;-44
2021/04/29 03:10:11;;;;;;;0.00;0.00;;;;;;;-1.67;96.86;101123.11;1756512;80;21107;-44
2021/04/29 03:12:39;;;;;;;2.47;0.62;;;;;;;-1.61;96.90;101115.16;1754513;81;21586;-44
2021/04/29 03:15:07;;;;;;;0.00;0.00;;;;;;;-1.54;96.99;101115.27;1773388;80;21110;-44
2021/04/29 03:17:35;;;;;;;0.10;0.10;;;;;;;-1.48;97.05;101114.55;1779672;80;21139;-44
2021/04/29 03:20:05;;;;;;;0.37;0.37;;;;;;;-1.41;97.09;101118.64;1781874;80;21110;-44
2021/04/29 03:22:33;;;;;;;0.37;0.35;;;;;;;-1.35;97.14;101114.72;1756076;80;21099;-44
2021/04/29 03:25:00;;;;;;;0.00;0.00;;;;;;;-1.26;97.20;101113.28;1783537;80;21160;-44
2021/04/29 03:27:30;;;;;;;0.20;0.20;;;;;;;-1.15;97.30;101122.22;1776765;80;21545;-44
2021/04/29 03:29:57;;;;;;;2.00;0.28;;;;;;;-1.05;97.45;101117.39;1755856;80;21131;-44
2021/04/29 03:32:25;;;;;;;0.10;0.10;;;;;;;-0.94;97.49;101122.30;1772425;80;21383;-44
2021/04/29 03:34:52;;;;;;;0.40;0.35;;;;;;;-0.82;97.55;101124.48;1777287;80;21613;-44
2021/04/29 03:37:20;;;;;;;0.10;0.10;;;;;;;-0.68;97.54;101124.97;1777339;80;21146;-44
2021/04/29 03:39:47;;;;;;;0.98;0.95;;;;;;;-0.52;97.58;101127.92;1781815;80;21621;-44
2021/04/29 03:42:14;;;;;;;1.07;0.65;;;;;;;-0.36;97.53;101124.18;1774527;80;21126;-44
2021/04/29 03:44:42;;;;;;;0.40;0.40;;;;;;;-0.19;97.71;101124.77;1724688;82;21755;-44
2021/04/29 03:47:09;;;;;;;0.10;0.10;;;;;;;-0.01;97.74;101120.58;1783634;80;21441;-44
2021/04/29 03:49:37;;;;;;;0.55;0.55;;;;;;;0.21;97.67;101129.97;1779077;80;21196;-44
2021/04/29 03:52:05;;;;;;;0.53;0.53;;;;;;;0.48;97.49;101128.83;1780752;80;21546;-45
2021/04/29 03:54:34;;;;;;;0.00;0.00;;;;;;;0.75;97.10;101122.59;1782708;80;21380;-44
2021/04/29 03:57:02;;;;;;;0.50;0.50;;;;;;;1.06;96.83;101121.28;1784827;80;21593;-45
2021/04/29 03:59:30;;;;;;;1.12;1.12;;;;;;;1.31;96.54;101121.63;1786968;80;21126;-45
2021/04/29 04:01:58;;;;;;;0.57;0.57;;;;;;;1.57;96.37;101124.89;1787031;80;21166;-44
2021/04/29 04:04:26;;;;;;;0.42;0.30;;;;;;;1.83;96.26;101116.53;1787579;80;21182;-45
2021/04/29 04:06:54;;;;;;;0.98;0.65;;;;;;;2.09;95.95;101124.66;1778007;80;21225;-45
2021/04/29 04:09:21;;;;;;;0.90;0.47;;;;;;;2.35;95.59;101127.06;1752910;80;21181;-45
2021/04/29 04:11:49;;;;;;;0.33;0.33;;;;;;;2.56;95.03;101128.16;1750343;81;21146;-45
2021/04/29 04:14:17;;;;;;;0.75;0.75;;;;;;;2.76;94.63;101126.77;1768345;80;21129;-45
2021/04/29 04:16:45;;;;;;;0.30;0.30;;;;;;;2.97;94.53;101125.69;1764901;80;21040;-45
2021/04/29 04:19:12;;;;;;;0.20;0.20;;;;;;;3.18;94.44;101126.44;1719227;81;21146;-45
2021/04/29 04:21:40;;;;;;;3.12;0.40;;;;;;;3.34;94.05;101116.52;1753679;81;21154;-45
2021/04/29 04:24:08;;;;;;;1.45;0.47;;;;;;;3.51;93.71;101124.10;1723253;81;21142;-45
2021/04/29 04:26:35;;;;;;;0.80;0.80;;;;;;;3.66;93.25;101115.20;1782466;80;21131;-45
2021/04/29 04:29:03;;;;;;;0.80;0.72;;;;;;;3.80;93.17;101118.10;1779630;80;21669;-45
2021/04/29 04:31:30;;;;;;;0.88;0.88;;;;;;;3.95;93.13;101127.78;1777493;80;21134;-45
2021/04/29 04:33:58;;;;;;;0.42;0.42;;;;;;;4.10;92.72;101122.88;1777970;80;21111;-45
2021/04/29 04:36:25;;;;;;;2.17;1.22;;;;;;;4.25;92.13;101118.00;1753316;80;21164;-44
2021/04/29 04:38:53;;;;;;;0.28;0.28;;;;;;;4.39;91.71;101118.69;1785187;80;21057;-45
2021/04/29 04:41:20;;;;;;;0.55;0.55;;;;;;;4.56;91.45;101123.02;1781697;80;21131;-45
2021/04/29 04:43:48;;;;;;;0.80;0.80;;;;;;;4.71;90.90;101117.24;1787377;80;21434;-45
2021/04/29 04:46:15;;;;;;;2.05;0.70;;;;;;;4.88;90.64;101126.96;1784724;80;21159;-44
2021/04/29 04:48:43;;;;;;;0.42;0.42;;;;;;;5.03;90.25;101124.70;1774930;80;21122;-45
2021/04/29 04:51:11;;;;;;;1.15;1.05;;;;;;;5.20;90.03;101127.63;1745968;82;21143;-45
2021/04/29 04:53:39;;;;;;;1.60;1.50;;;;;;;5.39;89.97;101124.38;1742883;82;21142;-45
2021/04/29 04:56:06;;;;;;;0.93;0.93;;;;;;;5.55;89.69;101126.44;1756550;81;21138;-45
2021/04/29 04:58:34;;;;;;;1.35;1.25;;;;;;;5.72;89.23;101125.81;1731175;81;21142;-45
2021/04/29 05:01:01;;;;;;;1.17;1.07;;;;;;;5.89;88.89;101125.45;1748948;81;21151;-45
2021/04/29 05:03:29;;;;;;;2.00;1.80;;;;;;;6.05;88.68;101115.02;1784665;80;21146;-45
2021/04/29 05:05:57;;;;;;;3.33;1.77;;;;;;;6.24;88.34;101127.44;1787685;80;21134;-45
2021/04/29 05:08:25;;;;;;;7.03;1.00;;;;;;;6.40;87.94;101129.44;1787703;80;21123;-45
2021/04/29 05:10:52;;;;;;;0.82;0.65;;;;;;;6.56;87.77;101127.11;1787982;80;21411;-45
2021/04/29 05:13:22;;;;;;;0.20;0.20;;;;;;;6.71;87.66;101124.73;1785869;80;21287;-45
2021/04/29 05:15:49;;;;;;;2.50;1.17;;;;;;;6.88;87.43;101120.23;1787782;80;21161;-45
2021/04/29 05:18:17;;;;;;;0.35;0.35;;;;;;;7.06;87.45;101118.42;1780044;80;21247;-45
2021/04/29 05:20:44;;;;;;;0.82;0.62;;;;;;;7.26;88.48;101122.92;1748753;81;21111;-45
2021/04/29 05:23:12;;;;;;;1.17;1.00;;;;;;;7.44;88.44;101125.16;1754677;81;21146;-45
2021/04/29 05:25:39;;;;;;;0.55;0.55;;;;;;;7.60;88.55;101116.25;1752496;81;21578;-45
2021/04/29 05:28:07;;;;;;;2.95;0.65;;;;;;;7.74;88.79;101125.77;1746883;81;21174;-45
2021/04/29 05:30:35;;;;;;;1.70;1.42;;;;;;;7.89;88.65;101123.86;1752393;81;21177;-45
2021/04/29 05:33:04;;;;;;;0.53;0.53;;;;;;;8.02;88.27;101125.44;1757033;80;21457;-45
2021/04/29 05:35:33;;;;;;;1.05;1.02;;;;;;;8.13;87.96;101131.87;1784196;80;21476;-45
2021/04/29 05:38:01;;;;;;;1.02;0.93;;;;;;;8.25;87.92;101127.72;1765364;80;21152;-45
2021/04/29 05:40:29;;;;;;;0.50;0.50;;;;;;;8.36;87.46;101125.45;1750526;80;21169;-45
2021/04/29 05:42:57;;;;;;;0.35;0.35;;;;;;;8.46;86.98;101124.28;1786916;78;22043;-45
2021/04/29 05:45:24;;;;;;;1.82;0.75;;;;;;;8.54;86.58;101122.49;1759521;80;21138;-45
2021/04/29 05:47:53;;;;;;;0.98;0.45;;;;;;;8.61;86.33;101121.78;1786565;79;21668;-45
2021/04/29 05:50:20;;;;;;;0.98;0.75;;;;;;;8.71;85.73;101123.84;1754950;81;21151;-45
2021/04/29 05:52:48;;;;;;;0.40;0.40;;;;;;;8.77;85.37;101122.00;1787753;80;21203;-45
2021/04/29 05:55:16;;;;;;;0.80;0.20;;;;;;;8.84;85.23;101122.65;1754854;81;21190;-45
2021/04/29 05:57:43;;;;;;;0.80;0.55;;;;;;;8.92;84.75;101122.20;1783558;78;21540;-45
2021/04/29 06:00:13;;;;;;;1.82;1.72;;;;;;;8.99;84.14;101125.58;1787708;80;21115;-45
2021/04/29 06:02:41;;;;;;;1.22;0.53;;;;;;;9.06;83.87;101125.95;1787652;80;21126;-45
2021/04/29 06:05:10;;;;;;;1.32;1.15;;;;;;;9.13;83.19;101126.05;1787291;80;21189;-45
2021/04/29 06:07:39;;;;;;;1.05;0.45;;;;;;;9.22;82.76;101127.26;1787530;80;21512;-45
2021/04/29 06:10:08;;;;;;;0.98;0.75;;;;;;;9.30;82.16;101123.26;1787535;80;21139;-45
2021/04/29 06:12:36;;;;;;;0.13;0.13;;;;;;;9.38;81.74;101125.52;1786942;80;21679;-45
2021/04/29 06:15:05;;;;;;;6.22;0.72;;;;;;;9.47;80.83;101124.00;1758269;80;21115;-45
2021/04/29 06:17:33;;;;;;;0.28;0.28;;;;;;;9.55;80.23;101126.00;1787721;80;21168;-45
2021/04/29 06:20:03;;;;;;;0.93;0.93;;;;;;;9.64;79.70;101128.53;1787660;80;20984;-45
2021/04/29 06:22:32;;;;;;;0.50;0.50;;;;;;;9.75;79.17;101124.02;1760685;80;21126;-45
2021/04/29 06:25:00;;;;;;;0.33;0.33;;;;;;;9.87;78.36;101126.88;1786955;80;21410;-45
2021/04/29 06:27:27;;;;;;;0.93;0.90;;;;;;;10.03;77.71;101125.64;1722828;81;21154;-45
2021/04/29 06:29:55;;;;;;;1.17;1.07;;;;;;;10.19;76.75;101127.44;1753667;81;21170;-45
2021/04/29 06:32:23;;;;;;;2.77;0.90;;;;;;;10.35;73.78;101127.59;1787143;80;21142;-45
2021/04/29 06:34:51;;;;;;;1.25;0.70;;;;;;;10.48;72.91;101124.40;1765491;80;21134;-46
2021/04/29 06:37:19;;;;;;;1.92;0.68;;;;;;;10.63;71.03;101126.41;1756377;81;21174;-45
2021/04/29 06:39:47;;;;;;;0.80;0.80;;;;;;;10.78;69.75;101131.16;1747782;82;21154;-45
2021/04/29 06:42:15;;;;;;;1.55;1.45;;;;;;;10.93;68.41;101128.53;1730271;82;21466;-45
2021/04/29 06:44:43;;;;;;;1.70;1.02;;;;;;;11.09;68.01;101124.77;1732873;81;21199;-45
2021/04/29 06:47:10;;;;;;;0.57;0.57;;;;;;;11.27;66.36;101129.50;1759711;81;21197;-46
2021/04/29 06:49:40;;;;;;;1.67;0.53;;;;;;;11.43;65.41;101132.58;1760423;81;21561;-45
2021/04/29 06:52:07;;;;;;;0.50;0.40;;;;;;;11.56;64.39;101121.11;1760525;81;21162;-45
2021/04/29 06:54:35;;;;;;;0.82;0.82;;;;;;;11.69;64.08;101131.28;1760437;81;21047;-46
2021/04/29 06:57:03;;;;;;;0.50;0.42;;;;;;;11.86;64.39;101128.30;1760594;81;21035;-45
2021/04/29 06:59:32;;;;;;;2.27;1.10;;;;;;;12.03;63.51;101126.16;1760356;81;21178;-45
2021/04/29 07:02:00;;;;;;;0.82;0.82;;;;;;;12.21;62.95;101127.53;1760722;81;21135;-46
2021/04/29 07:04:29;;;;;;;2.08;1.40;;;;;;;12.37;60.54;101137.97;1755027;81;21126;-45
2021/04/29 07:06:57;;;;;;;0.88;0.82;;;;;;;12.46;57.51;101134.41;1760565;81;21150;-45
2021/04/29 07:09:26;;;;;;;1.50;1.05;;;;;;;12.50;56.27;101128.36;1760290;81;21159;-45
2021/04/29 07:11:54;;;;;;;1.77;0.70;;;;;;;12.56;54.58;101135.47;1760565;81;21414;-45
2021/04/29 07:14:22;;;;;;;0.98;0.95;;;;;;;12.62;55.40;101131.64;1759684;81;21103;-45
2021/04/29 07:16:50;;;;;;;1.50;0.82;;;;;;;12.69;55.35;101140.41;1753823;81;21158;-46
2021/04/29 07:19:17;;;;;;;0.50;0.50;;;;;;;12.74;55.30;101136.28;1771216;80;21158;-46
2021/04/29 07:21:45;;;;;;;0.70;0.62;;;;;;;12.82;55.56;101137.63;1717666;82;21158;-45
2021/04/29 07:24:12;;;;;;;1.57;1.15;;;;;;;12.91;54.98;101138.16;1774417;80;21437;-45
2021/04/29 07:26:40;;;;;;;1.35;0.68;;;;;;;13.03;55.75;101126.89;1757236;80;21449;-45
2021/04/29 07:29:09;;;;;;;1.55;0.80;;;;;;;13.20;53.77;101129.27;1784819;80;21395;-45
2021/04/29 07:31:37;;;;;;;0.20;0.20;;;;;;;13.39;51.14;101132.25;1786248;80;21524;-45
2021/04/29 07:34:06;;;;;;;0.78;0.62;;;;;;;13.57;51.65;101130.78;1776365;80;21831;-45
2021/04/29 07:36:36;;;;;;;0.37;0.37;;;;;;;13.73;51.39;101128.23;1770352;80;21478;-46
2021/04/29 07:39:04;;;;;;;2.15;1.27;;;;;;;13.82;52.37;101132.55;1770407;80;21572;-46
2021/04/29 07:41:32;;;;;;;0.75;0.70;;;;;;;13.87;50.64;101135.30;1758812;80;21189;-45
2021/04/29 07:44:01;;;;;;;0.53;0.53;;;;;;;13.99;50.54;101143.16;1758141;78;21160;-45
2021/04/29 07:46:29;;;;;;;0.55;0.55;;;;;;;14.01;50.59;101140.95;1781732;80;21687;-45
2021/04/29 07:48:56;;;;;;;0.35;0.35;;;;;;;14.03;50.81;101140.12;1785970;80;21122;-45
2021/04/29 07:51:24;;;;;;;1.37;1.07;;;;;;;14.05;50.27;101139.28;1785759;80;21456;-45
2021/04/29 07:53:52;;;;;;;2.35;0.65;;;;;;;14.13;50.67;101137.85;1784910;78;21119;-45
2021/04/29 07:56:20;;;;;;;1.32;0.78;;;;;;;14.23;49.26;101136.95;1785112;80;21158;-45
2021/04/29 07:58:47;;;;;;;1.45;0.82;;;;;;;14.25;48.94;101138.31;1786049;80;21170;-46
2021/04/29 08:01:15;;;;;;;0.25;0.25;;;;;;;14.34;49.82;101137.12;1786124;80;21157;-45
2021/04/29 08:03:42;;;;;;;0.47;0.47;;;;;;;14.48;47.27;101141.41;1784214;78;21439;-45
2021/04/29 08:06:10;;;;;;;2.92;0.30;;;;;;;14.54;47.24;101141.65;1730985;81;21158;-45
2021/04/29 08:08:38;;;;;;;0.53;0.50;;;;;;;14.55;47.75;101142.75;1754979;81;21241;-45
2021/04/29 08:11:07;;;;;;;0.60;0.60;;;;;;;14.60;48.98;101132.25;1755401;81;21189;-45
2021/04/29 08:13:37;;;;;;;0.10;0.10;;;;;;;14.63;47.71;101133.86;1774686;78;21169;-45
2021/04/29 08:16:06;;;;;;;0.28;0.28;;;;;;;14.61;45.40;101130.60;1755363;81;21192;-45
2021/04/29 08:18:33;;;;;;;0.65;0.65;;;;;;;14.58;46.53;101128.41;1755112;81;21118;-45
2021/04/29 08:21:01;;;;;;;0.28;0.28;;;;;;;14.60;45.83;101123.44;1755232;81;21146;-45
2021/04/29 08:23:28;;;;;;;0.72;0.68;;;;;;;14.71;45.90;101120.05;1788081;78;21201;-45
2021/04/29 08:25:56;;;;;;;0.70;0.42;;;;;;;14.84;46.81;101122.67;1786090;80;21125;-45
2021/04/29 08:28:23;;;;;;;0.55;0.55;;;;;;;14.96;45.61;101125.84;1785306;80;21134;-45
2021/04/29 08:30:51;;;;;;;0.98;0.55;;;;;;;15.08;47.03;101116.34;1760868;79;21122;-45
2021/04/29 08:33:18;;;;;;;0.35;0.35;;;;;;;15.15;45.44;101108.55;1786517;79;21217;-46
2021/04/29 08:35:47;;;;;;;0.47;0.30;;;;;;;15.26;46.11;101109.51;1782958;80;21164;-45
2021/04/29 08:38:14;;;;;;;0.53;0.53;;;;;;;15.43;47.65;101102.13;1764192;80;21135;-45
2021/04/29 08:40:42;;;;;;;0.90;0.88;;;;;;;15.56;46.45;101099.77;1759273;79;21169;-46
2021/04/29 08:43:09;;;;;;;0.60;0.60;;;;;;;15.69;44.20;101101.77;1784859;79;21414;-46
2021/04/29 08:45:37;;;;;;;0.40;0.40;;;;;;;15.76;46.46;101093.98;1754867;81;21569;-46
2021/04/29 08:48:05;;;;;;;0.75;0.40;;;;;;;15.83;45.40;101081.20;1759292;80;21134;-46
2021/04/29 08:50:34;;;;;;;0.72;0.40;;;;;;;15.91;45.98;101085.47;1764572;80;21143;-46
2021/04/29 08:53:01;;;;;;;0.50;0.50;;;;;;;16.07;46.32;101081.08;1761461;80;21155;-45
2021/04/29 08:55:29;;;;;;;0.60;0.60;;;;;;;16.21;46.07;101070.92;1781414;80;21115;-46
2021/04/29 08:57:57;;;;;;;0.20;0.20;;;;;;;16.28;44.28;101067.78;1781391;80;21167;-46
2021/04/29 09:00:25;;;;;;;0.78;0.50;;;;;;;16.36;45.54;101059.37;1783777;79;21164;-46
2021/04/29 09:02:56;;;;;;;0.10;0.10;;;;;;;16.49;44.13;101065.45;1787301;80;21481;-46
2021/04/29 09:08:08;;;;;;;0.45;0.45;;;;;;;16.83;41.97;101051.88;1845740;76;22804;-46
2021/04/29 09:10:39;;;;;;;0.62;0.62;;;;;;;16.94;43.20;101047.80;1785719;78;21633;-46
2021/04/29 09:13:22;;;;;;;0.93;0.93;;;;;;;16.94;43.20;101047.80;1785528;78;21479;-46
2021/04/29 09:15:50;;;;;;;0.70;0.62;;;;;;;16.99;41.52;101049.08;1785621;80;21141;-46
2021/04/29 09:18:19;;;;;;;0.37;0.37;;;;;;;16.96;41.78;101053.80;1785509;78;21225;-46
2021/04/29 09:20:55;;;;;;;0.20;0.20;;;;;;;16.97;41.75;101055.46;1785004;80;21169;-46
2021/04/29 09:23:27;;;;;;;0.65;0.50;;;;;;;16.98;40.93;101047.42;1785388;78;21465;-46
2021/04/29 09:26:08;;;;;;;0.40;0.40;;;;;;;17.01;41.08;101042.66;1785801;80;21154;-46
2021/04/29 09:28:46;;;;;;;0.80;0.50;;;;;;;17.05;40.84;101033.21;1777405;80;21171;-45
2021/04/29 09:31:24;;;;;;;2.75;0.57;;;;;;;16.95;40.13;101030.09;1775108;80;21110;-46
2021/04/29 09:33:58;;;;;;;0.20;0.20;;;;;;;16.82;40.81;101028.18;1768509;80;21115;-45
2021/04/29 09:36:43;;;;;;;0.03;0.03;;;;;;;16.70;41.56;101032.22;1786250;80;21391;-46
2021/04/29 09:39:12;;;;;;;1.05;0.33;;;;;;;16.73;41.71;101023.33;1777990;80;21164;-46
2021/04/29 09:41:45;;;;;;;0.10;0.10;;;;;;;16.81;41.52;101019.63;1776925;80;21180;-46
2021/04/29 09:44:15;;;;;;;0.42;0.40;;;;;;;16.90;42.58;101025.50;1780735;80;21726;-46
2021/04/29 09:46:48;;;;;;;0.23;0.23;;;;;;;16.89;43.75;101020.27;1752143;80;21142;-46
2021/04/29 09:49:27;;;;;;;;;;;;;;;16.81;42.35;101020.44;1784192;79;21146;-46
2021/04/29 09:51:55;;;;;;;1.35;0.55;;;;;;;16.87;42.32;101010.94;1781702;80;20262;-46
2021/04/29 09:54:29;;;;;;;0.40;0.40;;;;;;;17.04;43.04;101016.41;1782292;79;21406;-46
2021/04/29 09:57:01;;;;;;;0.30;0.20;;;;;;;17.25;42.82;101011.23;1785964;80;21126;-46
2021/04/29 09:59:30;;;;;;;0.98;0.57;;;;;;;17.31;43.15;101002.53;1785760;78;21138;-46
2021/04/29 10:01:59;;;;;;;0.20;0.20;;;;;;;17.24;42.29;101004.09;1785916;78;21781;-46
2021/04/29 10:04:28;;;;;;;0.33;0.33;;;;;;;17.15;42.69;100999.28;1785983;78;21145;-46
2021/04/29 10:06:59;;;;;;;0.30;0.30;;;;;;;17.02;42.58;101001.52;1785937;78;21134;-46
2021/04/29 10:09:29;;;;;;;0.10;0.10;;;;;;;16.95;41.58;100999.16;1786089;78;21134;-46
2021/04/29 10:12:08;;;;;;;0.85;0.72;;;;;;;17.05;42.87;100980.19;1785844;80;21393;-46
2021/04/29 10:14:44;;;;;;;0.20;0.20;;;;;;;17.17;43.51;100983.79;1786071;78;21489;-46
2021/04/29 10:17:14;;;;;;;0.28;0.28;;;;;;;17.28;44.77;100979.66;1786210;80;21565;-46
2021/04/29 10:19:52;;;;;;;1.15;0.57;;;;;;;17.45;44.46;100982.32;1785506;79;21604;-46
2021/04/29 10:22:21;;;;;;;0.10;0.10;;;;;;;17.53;42.35;100965.83;1785495;80;21130;-46
2021/04/29 10:24:49;;;;;;;0.20;0.20;;;;;;;17.67;41.13;100985.09;1749603;80;21122;-46
2021/04/29 10:27:24;;;;;;;0.33;0.33;;;;;;;17.78;40.85;100980.14;1754204;81;21121;-46
2021/04/29 10:30:12;;;;;;;0.50;0.50;;;;;;;17.75;44.69;100975.22;1780546;78;21110;-46
2021/04/29 10:32:39;;;;;;;0.53;0.47;;;;;;;17.56;45.81;100974.86;1784330;80;21161;-46
2021/04/29 10:35:21;;;;;;;0.50;0.50;;;;;;;17.37;42.91;100972.83;1785403;80;21630;-46
2021/04/29 10:37:58;;;;;;;0.60;0.60;;;;;;;17.27;46.45;100968.94;1773373;80;21137;-46
2021/04/29 10:40:39;;;;;;;0.70;0.53;;;;;;;17.27;46.45;100968.94;1779284;80;21170;-46
2021/04/29 10:43:09;;;;;;;0.45;0.45;;;;;;;17.20;46.82;100966.02;1785181;79;21141;-46
2021/04/29 10:45:36;;;;;;;1.30;0.85;;;;;;;16.85;46.92;100959.94;1782882;80;21516;-46
2021/04/29 10:48:07;;;;;;;2.62;1.00;;;;;;;16.50;48.51;100958.16;1747815;78;21137;-46
2021/04/29 10:50:49;;;;;;;1.37;0.57;;;;;;;16.20;48.95;100952.68;1785426;80;21125;-46
2021/04/29 10:53:29;;;;;;;0.40;0.40;;;;;;;16.10;49.34;100952.31;1785114;78;21860;-46
2021/04/29 10:56:11;;;;;;;0.65;0.65;;;;;;;16.05;48.21;100955.97;1784497;78;21134;-46
2021/04/29 10:58:40;;;;;;;0.70;0.70;;;;;;;16.17;50.27;100943.08;1785046;78;21564;-46
2021/04/29 11:01:16;;;;;;;0.35;0.35;;;;;;;16.26;49.11;100939.84;1784932;80;21134;-46
2021/04/29 11:03:49;;;;;;;1.35;1.25;;;;;;;16.18;49.19;100940.56;1778350;78;21153;-46
2021/04/29 11:06:18;;;;;;;0.28;0.28;;;;;;;16.12;49.97;100941.23;1785206;80;21566;-46
2021/04/29 11:08:50;;;;;;;0.50;0.50;;;;;;;16.16;49.64;100940.05;1783917;78;21157;-46
2021/04/29 11:11:32;;;;;;;1.00;0.50;;;;;;;16.17;50.95;100933.43;1784879;80;21137;-46
2021/04/29 11:14:05;;;;;;;1.47;1.25;;;;;;;16.18;50.23;100924.59;1784110;80;21565;-46
2021/04/29 11:16:54;;;;;;;1.20;0.70;;;;;;;16.17;50.80;100930.67;1784242;80;21996;-46
2021/04/29 11:19:50;;;;;;;1.40;0.55;;;;;;;16.26;50.33;100921.92;1755448;80;21109;-46
2021/04/29 11:22:34;;;;;;;0.65;0.42;;;;;;;16.48;49.07;100920.39;1776015;80;21164;-46
2021/04/29 11:25:01;;;;;;;1.40;0.78;;;;;;;16.58;48.45;100924.31;1776853;80;21124;-46
2021/04/29 11:27:34;;;;;;;0.85;0.40;;;;;;;16.54;48.41;100922.75;1776966;80;21141;-46
2021/04/29 11:30:12;;;;;;;2.08;1.27;;;;;;;16.61;47.84;100920.12;1776797;80;21137;-46
2021/04/29 11:32:41;;;;;;;0.30;0.30;;;;;;;16.68;48.68;100928.23;1776680;80;21160;-46
2021/04/29 11:35:27;;;;;;;1.60;0.37;;;;;;;16.61;46.47;100918.17;1772458;80;21185;-46
2021/04/29 11:37:55;;;;;;;0.30;0.30;;;;;;;16.49;47.83;100921.48;1775737;80;21038;-46
2021/04/29 11:40:24;;;;;;;0.60;0.50;;;;;;;16.69;48.10;100910.57;1776880;80;21113;-47